sensor_id;sensor_type;location;lat;lon;timestamp;temperature;humidity
21676;DHT22;10999;51.332;9.458;2022-07-12T00:01:51;16.40;97.30
21676;DHT22;10999;51.332;9.458;2022-07-12T00:04:17;16.40;97.10
21676;DHT22;10999;51.332;9.458;2022-07-12T00:06:44;16.40;97.10
21676;DHT22;10999;51.332;9.458;2022-07-12T00:09:11;16.40;97.10
21676;DHT22;10999;51.332;9.458;2022-07-12T00:11:37;16.40;97.10
21676;DHT22;10999;51.332;9.458;2022-07-12T00:14:04;16.40;96.90
21676;DHT22;10999;51.332;9.458;2022-07-12T00:16:31;16.30;97.00
21676;DHT22;10999;51.332;9.458;2022-07-12T00:18:58;16.40;97.00
21676;DHT22;10999;51.332;9.458;2022-07-12T00:21:25;16.30;97.00
21676;DHT22;10999;51.332;9.458;2022-07-12T00:23:51;16.30;97.10
21676;DHT22;10999;51.332;9.458;2022-07-12T00:26:18;16.30;97.30
21676;DHT22;10999;51.332;9.458;2022-07-12T00:28:45;16.30;97.20
21676;DHT22;10999;51.332;9.458;2022-07-12T00:31:11;16.20;97.00
21676;DHT22;10999;51.332;9.458;2022-07-12T00:33:38;16.20;96.90
21676;DHT22;10999;51.332;9.458;2022-07-12T00:36:05;16.10;96.30
21676;DHT22;10999;51.332;9.458;2022-07-12T00:38:32;16.10;96.70
21676;DHT22;10999;51.332;9.458;2022-07-12T00:40:58;16.00;96.50
21676;DHT22;10999;51.332;9.458;2022-07-12T00:43:25;15.90;96.40
21676;DHT22;10999;51.332;9.458;2022-07-12T00:45:52;15.90;96.20
21676;DHT22;10999;51.332;9.458;2022-07-12T00:48:18;15.80;95.80
21676;DHT22;10999;51.332;9.458;2022-07-12T00:50:46;15.70;96.00
21676;DHT22;10999;51.332;9.458;2022-07-12T00:53:13;15.70;95.80
21676;DHT22;10999;51.332;9.458;2022-07-12T00:55:40;15.60;95.60
21676;DHT22;10999;51.332;9.458;2022-07-12T00:58:07;15.60;95.60
21676;DHT22;10999;51.332;9.458;2022-07-12T01:00:34;15.50;95.50
21676;DHT22;10999;51.332;9.458;2022-07-12T01:03:01;15.50;95.00
21676;DHT22;10999;51.332;9.458;2022-07-12T01:05:28;15.50;95.20
21676;DHT22;10999;51.332;9.458;2022-07-12T01:07:55;15.40;94.90
21676;DHT22;10999;51.332;9.458;2022-07-12T01:10:22;15.40;94.70
21676;DHT22;10999;51.332;9.458;2022-07-12T01:12:49;15.40;94.60
21676;DHT22;10999;51.332;9.458;2022-07-12T01:15:17;15.30;95.10
21676;DHT22;10999;51.332;9.458;2022-07-12T01:17:44;15.40;95.70
21676;DHT22;10999;51.332;9.458;2022-07-12T01:20:18;15.30;96.20
21676;DHT22;10999;51.332;9.458;2022-07-12T01:22:54;15.40;96.50
21676;DHT22;10999;51.332;9.458;2022-07-12T01:25:22;15.40;96.80
21676;DHT22;10999;51.332;9.458;2022-07-12T01:27:48;15.40;97.00
21676;DHT22;10999;51.332;9.458;2022-07-12T01:30:15;15.40;97.20
21676;DHT22;10999;51.332;9.458;2022-07-12T01:32:42;15.40;97.30
21676;DHT22;10999;51.332;9.458;2022-07-12T01:35:09;15.40;97.60
21676;DHT22;10999;51.332;9.458;2022-07-12T01:37:40;15.50;97.70
21676;DHT22;10999;51.332;9.458;2022-07-12T01:40:08;15.40;97.80
21676;DHT22;10999;51.332;9.458;2022-07-12T01:42:35;15.30;97.80
21676;DHT22;10999;51.332;9.458;2022-07-12T01:45:03;15.30;98.10
21676;DHT22;10999;51.332;9.458;2022-07-12T01:47:30;15.30;98.10
21676;DHT22;10999;51.332;9.458;2022-07-12T01:49:57;15.30;98.30
21676;DHT22;10999;51.332;9.458;2022-07-12T01:52:24;15.30;98.40
21676;DHT22;10999;51.332;9.458;2022-07-12T01:54:52;15.20;98.70
21676;DHT22;10999;51.332;9.458;2022-07-12T01:57:19;15.20;98.70
21676;DHT22;10999;51.332;9.458;2022-07-12T01:59:45;15.20;98.90
21676;DHT22;10999;51.332;9.458;2022-07-12T02:02:12;15.20;99.20
21676;DHT22;10999;51.332;9.458;2022-07-12T02:04:39;15.20;99.40
21676;DHT22;10999;51.332;9.458;2022-07-12T02:07:06;15.20;99.50
21676;DHT22;10999;51.332;9.458;2022-07-12T02:09:32;15.20;99.50
21676;DHT22;10999;51.332;9.458;2022-07-12T02:11:59;15.20;99.20
21676;DHT22;10999;51.332;9.458;2022-07-12T02:14:25;15.30;99.20
21676;DHT22;10999;51.332;9.458;2022-07-12T02:16:53;15.30;99.00
21676;DHT22;10999;51.332;9.458;2022-07-12T02:19:19;15.20;98.60
21676;DHT22;10999;51.332;9.458;2022-07-12T02:21:46;15.20;98.50
21676;DHT22;10999;51.332;9.458;2022-07-12T02:24:13;15.30;98.20
21676;DHT22;10999;51.332;9.458;2022-07-12T02:26:39;15.30;97.90
21676;DHT22;10999;51.332;9.458;2022-07-12T02:29:06;15.20;97.50
21676;DHT22;10999;51.332;9.458;2022-07-12T02:31:33;15.20;97.10
21676;DHT22;10999;51.332;9.458;2022-07-12T02:33:59;15.20;96.90
21676;DHT22;10999;51.332;9.458;2022-07-12T02:36:26;15.10;96.70
21676;DHT22;10999;51.332;9.458;2022-07-12T02:38:53;15.00;96.80
21676;DHT22;10999;51.332;9.458;2022-07-12T02:41:19;15.10;96.70
21676;DHT22;10999;51.332;9.458;2022-07-12T02:43:46;14.90;97.00
21676;DHT22;10999;51.332;9.458;2022-07-12T02:46:13;14.70;97.30
21676;DHT22;10999;51.332;9.458;2022-07-12T02:48:40;14.70;98.00
21676;DHT22;10999;51.332;9.458;2022-07-12T02:51:07;14.70;98.10
21676;DHT22;10999;51.332;9.458;2022-07-12T02:53:34;14.70;98.10
21676;DHT22;10999;51.332;9.458;2022-07-12T02:56:07;14.80;97.90
21676;DHT22;10999;51.332;9.458;2022-07-12T02:58:34;14.70;97.90
21676;DHT22;10999;51.332;9.458;2022-07-12T03:01:00;14.70;97.90
21676;DHT22;10999;51.332;9.458;2022-07-12T03:03:27;14.70;97.90
21676;DHT22;10999;51.332;9.458;2022-07-12T03:05:53;14.70;99.30
21676;DHT22;10999;51.332;9.458;2022-07-12T03:08:20;14.70;99.10
21676;DHT22;10999;51.332;9.458;2022-07-12T03:10:47;14.70;99.00
21676;DHT22;10999;51.332;9.458;2022-07-12T03:13:14;14.60;98.90
21676;DHT22;10999;51.332;9.458;2022-07-12T03:15:41;14.70;99.40
21676;DHT22;10999;51.332;9.458;2022-07-12T03:18:08;14.70;99.30
21676;DHT22;10999;51.332;9.458;2022-07-12T03:20:35;14.70;99.40
21676;DHT22;10999;51.332;9.458;2022-07-12T03:23:02;14.70;99.30
21676;DHT22;10999;51.332;9.458;2022-07-12T03:25:29;14.80;99.30
21676;DHT22;10999;51.332;9.458;2022-07-12T03:27:56;14.90;99.30
21676;DHT22;10999;51.332;9.458;2022-07-12T03:30:22;14.80;99.00
21676;DHT22;10999;51.332;9.458;2022-07-12T03:32:49;14.80;99.10
21676;DHT22;10999;51.332;9.458;2022-07-12T03:35:16;14.70;99.30
21676;DHT22;10999;51.332;9.458;2022-07-12T03:37:44;14.80;99.60
21676;DHT22;10999;51.332;9.458;2022-07-12T03:40:12;14.80;99.50
21676;DHT22;10999;51.332;9.458;2022-07-12T03:42:40;14.80;99.30
21676;DHT22;10999;51.332;9.458;2022-07-12T03:45:07;14.90;99.50
21676;DHT22;10999;51.332;9.458;2022-07-12T03:47:33;14.90;99.40
21676;DHT22;10999;51.332;9.458;2022-07-12T03:50:12;14.90;99.20
21676;DHT22;10999;51.332;9.458;2022-07-12T03:52:40;14.90;99.30
21676;DHT22;10999;51.332;9.458;2022-07-12T03:55:08;14.90;99.60
21676;DHT22;10999;51.332;9.458;2022-07-12T03:57:35;15.00;99.80
21676;DHT22;10999;51.332;9.458;2022-07-12T04:00:03;15.00;99.90
21676;DHT22;10999;51.332;9.458;2022-07-12T04:02:30;15.00;99.90
21676;DHT22;10999;51.332;9.458;2022-07-12T04:04:56;15.10;99.90
21676;DHT22;10999;51.332;9.458;2022-07-12T04:07:23;15.00;99.90
21676;DHT22;10999;51.332;9.458;2022-07-12T04:09:50;15.10;99.90
21676;DHT22;10999;51.332;9.458;2022-07-12T04:12:16;15.20;99.90
21676;DHT22;10999;51.332;9.458;2022-07-12T04:14:43;15.20;99.80
21676;DHT22;10999;51.332;9.458;2022-07-12T04:17:09;15.20;99.80
21676;DHT22;10999;51.332;9.458;2022-07-12T04:19:36;15.30;99.80
21676;DHT22;10999;51.332;9.458;2022-07-12T04:22:03;15.30;99.60
21676;DHT22;10999;51.332;9.458;2022-07-12T04:24:29;15.40;99.70
21676;DHT22;10999;51.332;9.458;2022-07-12T04:26:56;15.40;99.50
21676;DHT22;10999;51.332;9.458;2022-07-12T04:29:23;15.40;99.50
21676;DHT22;10999;51.332;9.458;2022-07-12T04:31:49;15.50;99.50
21676;DHT22;10999;51.332;9.458;2022-07-12T04:34:16;15.50;99.30
21676;DHT22;10999;51.332;9.458;2022-07-12T04:36:45;15.50;99.40
21676;DHT22;10999;51.332;9.458;2022-07-12T04:39:13;15.60;99.20
21676;DHT22;10999;51.332;9.458;2022-07-12T04:41:40;15.60;99.00
21676;DHT22;10999;51.332;9.458;2022-07-12T04:44:07;15.60;98.90
21676;DHT22;10999;51.332;9.458;2022-07-12T04:46:34;15.60;98.70
21676;DHT22;10999;51.332;9.458;2022-07-12T04:49:00;15.70;99.00
21676;DHT22;10999;51.332;9.458;2022-07-12T04:51:27;15.70;99.10
21676;DHT22;10999;51.332;9.458;2022-07-12T04:53:54;15.70;98.90
21676;DHT22;10999;51.332;9.458;2022-07-12T04:56:21;15.70;99.00
21676;DHT22;10999;51.332;9.458;2022-07-12T04:58:47;15.80;99.00
21676;DHT22;10999;51.332;9.458;2022-07-12T05:01:15;15.80;99.20
21676;DHT22;10999;51.332;9.458;2022-07-12T05:03:42;15.80;99.10
21676;DHT22;10999;51.332;9.458;2022-07-12T05:06:09;15.90;99.00
21676;DHT22;10999;51.332;9.458;2022-07-12T05:08:35;15.90;98.70
21676;DHT22;10999;51.332;9.458;2022-07-12T05:11:02;15.90;98.40
21676;DHT22;10999;51.332;9.458;2022-07-12T05:13:29;16.00;98.40
21676;DHT22;10999;51.332;9.458;2022-07-12T05:15:55;16.10;98.30
21676;DHT22;10999;51.332;9.458;2022-07-12T05:18:22;16.10;98.00
21676;DHT22;10999;51.332;9.458;2022-07-12T05:20:49;16.10;97.70
21676;DHT22;10999;51.332;9.458;2022-07-12T05:23:18;16.10;97.50
21676;DHT22;10999;51.332;9.458;2022-07-12T05:25:44;16.20;97.60
21676;DHT22;10999;51.332;9.458;2022-07-12T05:28:13;16.10;97.10
21676;DHT22;10999;51.332;9.458;2022-07-12T05:30:39;16.10;97.00
21676;DHT22;10999;51.332;9.458;2022-07-12T05:33:06;16.10;96.80
21676;DHT22;10999;51.332;9.458;2022-07-12T05:35:33;16.10;96.40
21676;DHT22;10999;51.332;9.458;2022-07-12T05:38:00;16.10;96.40
21676;DHT22;10999;51.332;9.458;2022-07-12T05:40:27;16.10;96.30
21676;DHT22;10999;51.332;9.458;2022-07-12T05:42:54;16.10;96.30
21676;DHT22;10999;51.332;9.458;2022-07-12T05:45:21;16.10;96.20
21676;DHT22;10999;51.332;9.458;2022-07-12T05:47:51;16.20;96.30
21676;DHT22;10999;51.332;9.458;2022-07-12T05:50:17;16.20;95.70
21676;DHT22;10999;51.332;9.458;2022-07-12T05:52:44;16.10;95.50
21676;DHT22;10999;51.332;9.458;2022-07-12T05:55:29;16.10;95.50
21676;DHT22;10999;51.332;9.458;2022-07-12T05:57:56;16.10;95.70
21676;DHT22;10999;51.332;9.458;2022-07-12T06:00:22;16.20;95.90
21676;DHT22;10999;51.332;9.458;2022-07-12T06:02:49;16.20;96.10
21676;DHT22;10999;51.332;9.458;2022-07-12T06:05:16;16.20;95.80
21676;DHT22;10999;51.332;9.458;2022-07-12T06:07:43;16.30;95.80
21676;DHT22;10999;51.332;9.458;2022-07-12T06:10:10;16.30;95.20
21676;DHT22;10999;51.332;9.458;2022-07-12T06:12:36;16.40;94.90
21676;DHT22;10999;51.332;9.458;2022-07-12T06:15:04;16.40;95.30
21676;DHT22;10999;51.332;9.458;2022-07-12T06:17:33;16.50;95.50
21676;DHT22;10999;51.332;9.458;2022-07-12T06:19:59;16.60;95.30
21676;DHT22;10999;51.332;9.458;2022-07-12T06:22:26;16.60;95.00
21676;DHT22;10999;51.332;9.458;2022-07-12T06:24:53;16.70;95.10
21676;DHT22;10999;51.332;9.458;2022-07-12T06:27:19;16.80;95.00
21676;DHT22;10999;51.332;9.458;2022-07-12T06:29:46;16.90;95.10
21676;DHT22;10999;51.332;9.458;2022-07-12T06:32:15;17.00;95.00
21676;DHT22;10999;51.332;9.458;2022-07-12T06:34:42;17.00;92.50
21676;DHT22;10999;51.332;9.458;2022-07-12T06:37:08;17.00;92.30
21676;DHT22;10999;51.332;9.458;2022-07-12T06:39:35;17.20;92.50
21676;DHT22;10999;51.332;9.458;2022-07-12T06:42:02;17.30;92.70
21676;DHT22;10999;51.332;9.458;2022-07-12T06:44:32;17.40;90.40
21676;DHT22;10999;51.332;9.458;2022-07-12T06:46:59;17.60;91.00
21676;DHT22;10999;51.332;9.458;2022-07-12T06:49:26;17.90;92.00
21676;DHT22;10999;51.332;9.458;2022-07-12T06:51:52;18.10;88.80
21676;DHT22;10999;51.332;9.458;2022-07-12T06:54:20;18.20;88.00
21676;DHT22;10999;51.332;9.458;2022-07-12T06:56:47;18.40;87.90
21676;DHT22;10999;51.332;9.458;2022-07-12T06:59:13;18.50;85.60
21676;DHT22;10999;51.332;9.458;2022-07-12T07:01:42;18.60;84.80
21676;DHT22;10999;51.332;9.458;2022-07-12T07:04:09;18.70;82.70
21676;DHT22;10999;51.332;9.458;2022-07-12T07:06:35;18.80;82.80
21676;DHT22;10999;51.332;9.458;2022-07-12T07:09:02;18.90;80.30
21676;DHT22;10999;51.332;9.458;2022-07-12T07:11:33;18.90;78.90
21676;DHT22;10999;51.332;9.458;2022-07-12T07:14:00;18.80;78.00
21676;DHT22;10999;51.332;9.458;2022-07-12T07:16:27;18.80;77.60
21676;DHT22;10999;51.332;9.458;2022-07-12T07:18:54;18.70;77.20
21676;DHT22;10999;51.332;9.458;2022-07-12T07:21:21;18.90;80.50
21676;DHT22;10999;51.332;9.458;2022-07-12T07:23:47;19.20;81.20
21676;DHT22;10999;51.332;9.458;2022-07-12T07:26:14;19.40;76.40
21676;DHT22;10999;51.332;9.458;2022-07-12T07:28:41;19.90;74.90
21676;DHT22;10999;51.332;9.458;2022-07-12T07:31:27;20.00;71.80
21676;DHT22;10999;51.332;9.458;2022-07-12T07:33:53;20.20;65.70
21676;DHT22;10999;51.332;9.458;2022-07-12T07:36:20;20.10;66.10
21676;DHT22;10999;51.332;9.458;2022-07-12T07:38:47;19.70;66.20
21676;DHT22;10999;51.332;9.458;2022-07-12T07:41:14;19.60;67.40
21676;DHT22;10999;51.332;9.458;2022-07-12T07:43:40;19.30;66.10
21676;DHT22;10999;51.332;9.458;2022-07-12T07:46:07;19.20;67.10
21676;DHT22;10999;51.332;9.458;2022-07-12T07:48:34;19.00;67.60
21676;DHT22;10999;51.332;9.458;2022-07-12T07:51:00;19.00;67.80
21676;DHT22;10999;51.332;9.458;2022-07-12T07:53:27;18.90;69.30
21676;DHT22;10999;51.332;9.458;2022-07-12T07:55:54;18.80;70.20
21676;DHT22;10999;51.332;9.458;2022-07-12T07:58:21;18.80;69.80
21676;DHT22;10999;51.332;9.458;2022-07-12T08:00:51;18.90;70.70
21676;DHT22;10999;51.332;9.458;2022-07-12T08:03:19;19.40;73.40
21676;DHT22;10999;51.332;9.458;2022-07-12T08:05:46;19.70;69.80
21676;DHT22;10999;51.332;9.458;2022-07-12T08:08:13;19.70;61.70
21676;DHT22;10999;51.332;9.458;2022-07-12T08:10:40;19.70;62.70
21676;DHT22;10999;51.332;9.458;2022-07-12T08:13:07;19.70;64.10
21676;DHT22;10999;51.332;9.458;2022-07-12T08:15:34;20.00;65.80
21676;DHT22;10999;51.332;9.458;2022-07-12T08:18:00;20.70;65.50
21676;DHT22;10999;51.332;9.458;2022-07-12T08:20:28;21.10;55.00
21676;DHT22;10999;51.332;9.458;2022-07-12T08:23:13;21.50;51.50
21676;DHT22;10999;51.332;9.458;2022-07-12T08:25:40;22.00;49.00
21676;DHT22;10999;51.332;9.458;2022-07-12T08:28:07;22.50;49.50
21676;DHT22;10999;51.332;9.458;2022-07-12T08:30:34;23.00;42.80
21676;DHT22;10999;51.332;9.458;2022-07-12T08:33:08;23.40;44.40
21676;DHT22;10999;51.332;9.458;2022-07-12T08:35:35;23.80;43.10
21676;DHT22;10999;51.332;9.458;2022-07-12T08:38:01;24.10;38.80
21676;DHT22;10999;51.332;9.458;2022-07-12T08:40:28;24.00;36.70
21676;DHT22;10999;51.332;9.458;2022-07-12T08:42:56;24.20;35.50
21676;DHT22;10999;51.332;9.458;2022-07-12T08:45:23;24.30;36.60
21676;DHT22;10999;51.332;9.458;2022-07-12T08:47:50;24.50;33.80
21676;DHT22;10999;51.332;9.458;2022-07-12T08:50:18;24.70;33.80
21676;DHT22;10999;51.332;9.458;2022-07-12T08:52:48;24.90;34.70
21676;DHT22;10999;51.332;9.458;2022-07-12T08:57:58;25.30;31.60
21676;DHT22;10999;51.332;9.458;2022-07-12T09:00:26;25.30;29.90
21676;DHT22;10999;51.332;9.458;2022-07-12T09:02:55;25.20;29.40
21676;DHT22;10999;51.332;9.458;2022-07-12T09:05:23;24.80;33.00
21676;DHT22;10999;51.332;9.458;2022-07-12T09:07:50;24.80;33.00
21676;DHT22;10999;51.332;9.458;2022-07-12T09:10:17;24.80;32.10
21676;DHT22;10999;51.332;9.458;2022-07-12T09:12:44;24.80;29.60
21676;DHT22;10999;51.332;9.458;2022-07-12T09:15:14;24.70;30.30
21676;DHT22;10999;51.332;9.458;2022-07-12T09:17:59;25.00;34.90
21676;DHT22;10999;51.332;9.458;2022-07-12T09:20:30;25.20;32.30
21676;DHT22;10999;51.332;9.458;2022-07-12T09:22:58;25.10;29.40
21676;DHT22;10999;51.332;9.458;2022-07-12T09:25:25;25.00;28.00
21676;DHT22;10999;51.332;9.458;2022-07-12T09:27:53;25.20;29.70
21676;DHT22;10999;51.332;9.458;2022-07-12T09:30:21;25.30;31.80
21676;DHT22;10999;51.332;9.458;2022-07-12T09:32:53;25.40;29.10
21676;DHT22;10999;51.332;9.458;2022-07-12T09:35:39;25.60;28.90
21676;DHT22;10999;51.332;9.458;2022-07-12T09:38:28;25.90;26.90
21676;DHT22;10999;51.332;9.458;2022-07-12T09:40:55;26.00;27.70
21676;DHT22;10999;51.332;9.458;2022-07-12T09:43:22;26.10;26.50
21676;DHT22;10999;51.332;9.458;2022-07-12T09:45:49;26.30;26.10
21676;DHT22;10999;51.332;9.458;2022-07-12T09:48:16;26.00;26.40
21676;DHT22;10999;51.332;9.458;2022-07-12T09:50:46;26.10;27.00
21676;DHT22;10999;51.332;9.458;2022-07-12T09:53:27;26.40;28.50
21676;DHT22;10999;51.332;9.458;2022-07-12T09:55:54;26.00;25.90
21676;DHT22;10999;51.332;9.458;2022-07-12T09:58:30;26.10;25.60
21676;DHT22;10999;51.332;9.458;2022-07-12T10:00:58;26.10;27.00
21676;DHT22;10999;51.332;9.458;2022-07-12T10:03:26;26.20;27.40
21676;DHT22;10999;51.332;9.458;2022-07-12T10:05:54;26.00;23.80
21676;DHT22;10999;51.332;9.458;2022-07-12T10:08:21;25.90;27.50
21676;DHT22;10999;51.332;9.458;2022-07-12T10:10:48;26.10;27.40
21676;DHT22;10999;51.332;9.458;2022-07-12T10:13:16;26.20;25.80
21676;DHT22;10999;51.332;9.458;2022-07-12T10:15:42;26.40;24.10
21676;DHT22;10999;51.332;9.458;2022-07-12T10:18:18;26.40;26.40
21676;DHT22;10999;51.332;9.458;2022-07-12T10:20:45;26.40;24.50
21676;DHT22;10999;51.332;9.458;2022-07-12T10:23:27;26.50;23.90
21676;DHT22;10999;51.332;9.458;2022-07-12T10:25:53;26.40;23.50
21676;DHT22;10999;51.332;9.458;2022-07-12T10:28:20;26.30;24.50
21676;DHT22;10999;51.332;9.458;2022-07-12T10:30:48;26.40;22.90
21676;DHT22;10999;51.332;9.458;2022-07-12T10:33:19;26.20;21.90
21676;DHT22;10999;51.332;9.458;2022-07-12T10:36:03;26.20;23.10
21676;DHT22;10999;51.332;9.458;2022-07-12T10:38:33;26.40;24.00
21676;DHT22;10999;51.332;9.458;2022-07-12T10:41:15;26.40;22.60
21676;DHT22;10999;51.332;9.458;2022-07-12T10:43:42;26.50;26.40
21676;DHT22;10999;51.332;9.458;2022-07-12T10:46:27;26.60;23.70
21676;DHT22;10999;51.332;9.458;2022-07-12T10:51:39;26.50;19.30
21676;DHT22;10999;51.332;9.458;2022-07-12T10:54:19;26.50;21.20
21676;DHT22;10999;51.332;9.458;2022-07-12T10:56:55;26.50;19.40
21676;DHT22;10999;51.332;9.458;2022-07-12T10:59:21;26.30;19.40
21676;DHT22;10999;51.332;9.458;2022-07-12T11:01:49;26.20;18.50
21676;DHT22;10999;51.332;9.458;2022-07-12T11:04:19;26.40;21.20
21676;DHT22;10999;51.332;9.458;2022-07-12T11:06:45;26.40;20.00
21676;DHT22;10999;51.332;9.458;2022-07-12T11:09:12;26.30;21.70
21676;DHT22;10999;51.332;9.458;2022-07-12T11:11:43;26.30;19.60
21676;DHT22;10999;51.332;9.458;2022-07-12T11:14:11;26.30;18.10
21676;DHT22;10999;51.332;9.458;2022-07-12T11:16:44;26.40;19.10
21676;DHT22;10999;51.332;9.458;2022-07-12T11:19:12;26.40;18.90
21676;DHT22;10999;51.332;9.458;2022-07-12T11:21:38;26.30;19.20
21676;DHT22;10999;51.332;9.458;2022-07-12T11:24:18;26.30;19.40
21676;DHT22;10999;51.332;9.458;2022-07-12T11:26:45;26.40;19.80
21676;DHT22;10999;51.332;9.458;2022-07-12T11:29:14;26.40;19.80
21676;DHT22;10999;51.332;9.458;2022-07-12T11:31:41;26.30;19.20
21676;DHT22;10999;51.332;9.458;2022-07-12T11:34:18;26.30;19.90
21676;DHT22;10999;51.332;9.458;2022-07-12T11:36:45;26.40;18.50
21676;DHT22;10999;51.332;9.458;2022-07-12T11:39:12;26.50;19.30
21676;DHT22;10999;51.332;9.458;2022-07-12T11:41:39;26.60;18.90
21676;DHT22;10999;51.332;9.458;2022-07-12T11:44:05;26.80;19.60
21676;DHT22;10999;51.332;9.458;2022-07-12T11:46:32;26.80;16.90
21676;DHT22;10999;51.332;9.458;2022-07-12T11:48:59;26.90;17.60
21676;DHT22;10999;51.332;9.458;2022-07-12T11:51:26;26.90;14.90
21676;DHT22;10999;51.332;9.458;2022-07-12T11:53:53;26.80;15.30
21676;DHT22;10999;51.332;9.458;2022-07-12T11:56:28;26.70;15.30
21676;DHT22;10999;51.332;9.458;2022-07-12T11:58:55;26.90;16.70
21676;DHT22;10999;51.332;9.458;2022-07-12T12:01:22;26.90;16.00
21676;DHT22;10999;51.332;9.458;2022-07-12T12:03:48;27.00;15.80
21676;DHT22;10999;51.332;9.458;2022-07-12T12:06:16;26.90;15.10
21676;DHT22;10999;51.332;9.458;2022-07-12T12:08:42;26.90;14.40
21676;DHT22;10999;51.332;9.458;2022-07-12T12:11:11;26.80;14.10
21676;DHT22;10999;51.332;9.458;2022-07-12T12:13:38;26.80;15.60
21676;DHT22;10999;51.332;9.458;2022-07-12T12:16:04;26.80;14.70
21676;DHT22;10999;51.332;9.458;2022-07-12T12:21:00;27.10;15.80
21676;DHT22;10999;51.332;9.458;2022-07-12T12:23:27;27.30;13.20
21676;DHT22;10999;51.332;9.458;2022-07-12T12:26:07;27.20;15.30
21676;DHT22;10999;51.332;9.458;2022-07-12T12:28:41;27.10;14.60
21676;DHT22;10999;51.332;9.458;2022-07-12T12:31:08;27.10;15.50
21676;DHT22;10999;51.332;9.458;2022-07-12T12:33:36;27.30;16.20
21676;DHT22;10999;51.332;9.458;2022-07-12T12:36:13;27.50;15.50
21676;DHT22;10999;51.332;9.458;2022-07-12T12:38:39;27.60;15.10
21676;DHT22;10999;51.332;9.458;2022-07-12T12:41:06;27.80;15.30
21676;DHT22;10999;51.332;9.458;2022-07-12T12:43:33;27.80;12.90
21676;DHT22;10999;51.332;9.458;2022-07-12T12:46:00;27.70;11.80
21676;DHT22;10999;51.332;9.458;2022-07-12T12:48:27;27.60;15.20
21676;DHT22;10999;51.332;9.458;2022-07-12T12:51:02;27.60;14.60
21676;DHT22;10999;51.332;9.458;2022-07-12T12:53:29;27.70;14.50
21676;DHT22;10999;51.332;9.458;2022-07-12T12:55:56;27.90;15.00
21676;DHT22;10999;51.332;9.458;2022-07-12T12:58:23;27.90;12.60
21676;DHT22;10999;51.332;9.458;2022-07-12T13:00:52;28.00;14.10
21676;DHT22;10999;51.332;9.458;2022-07-12T13:03:20;28.30;13.60
21676;DHT22;10999;51.332;9.458;2022-07-12T13:05:47;28.30;12.40
21676;DHT22;10999;51.332;9.458;2022-07-12T13:08:15;28.30;11.30
21676;DHT22;10999;51.332;9.458;2022-07-12T13:10:43;28.00;11.20
21676;DHT22;10999;51.332;9.458;2022-07-12T13:13:09;28.10;12.90
21676;DHT22;10999;51.332;9.458;2022-07-12T13:15:43;28.10;13.10
21676;DHT22;10999;51.332;9.458;2022-07-12T13:18:13;28.10;12.00
21676;DHT22;10999;51.332;9.458;2022-07-12T13:20:41;27.90;11.80
21676;DHT22;10999;51.332;9.458;2022-07-12T13:23:08;28.00;11.60
21676;DHT22;10999;51.332;9.458;2022-07-12T13:25:35;28.00;11.60
21676;DHT22;10999;51.332;9.458;2022-07-12T13:28:02;28.00;11.40
21676;DHT22;10999;51.332;9.458;2022-07-12T13:30:30;28.20;12.10
21676;DHT22;10999;51.332;9.458;2022-07-12T13:32:56;28.30;12.90
21676;DHT22;10999;51.332;9.458;2022-07-12T13:35:23;28.30;11.10
21676;DHT22;10999;51.332;9.458;2022-07-12T13:37:50;28.30;10.30
21676;DHT22;10999;51.332;9.458;2022-07-12T13:40:24;28.30;10.90
21676;DHT22;10999;51.332;9.458;2022-07-12T13:42:51;28.30;12.90
21676;DHT22;10999;51.332;9.458;2022-07-12T13:45:19;28.50;14.50
21676;DHT22;10999;51.332;9.458;2022-07-12T13:47:46;28.60;10.90
21676;DHT22;10999;51.332;9.458;2022-07-12T13:50:14;28.60;9.80
21676;DHT22;10999;51.332;9.458;2022-07-12T13:52:43;28.40;9.50
21676;DHT22;10999;51.332;9.458;2022-07-12T13:55:11;28.50;10.30
21676;DHT22;10999;51.332;9.458;2022-07-12T13:57:38;28.50;11.10
21676;DHT22;10999;51.332;9.458;2022-07-12T14:00:05;28.60;10.70
21676;DHT22;10999;51.332;9.458;2022-07-12T14:02:36;28.70;9.40
21676;DHT22;10999;51.332;9.458;2022-07-12T14:05:03;28.70;9.00
21676;DHT22;10999;51.332;9.458;2022-07-12T14:07:31;28.80;10.70
21676;DHT22;10999;51.332;9.458;2022-07-12T14:09:59;28.70;8.40
21676;DHT22;10999;51.332;9.458;2022-07-12T14:12:26;28.50;10.20
21676;DHT22;10999;51.332;9.458;2022-07-12T14:14:53;28.60;10.20
21676;DHT22;10999;51.332;9.458;2022-07-12T14:17:38;28.80;10.80
21676;DHT22;10999;51.332;9.458;2022-07-12T14:20:05;28.90;8.00
21676;DHT22;10999;51.332;9.458;2022-07-12T14:22:32;29.00;10.10
21676;DHT22;10999;51.332;9.458;2022-07-12T14:24:59;29.10;9.30
21676;DHT22;10999;51.332;9.458;2022-07-12T14:27:25;29.10;7.60
21676;DHT22;10999;51.332;9.458;2022-07-12T14:29:52;29.00;7.90
21676;DHT22;10999;51.332;9.458;2022-07-12T14:32:19;29.10;8.20
21676;DHT22;10999;51.332;9.458;2022-07-12T14:34:45;29.10;9.10
21676;DHT22;10999;51.332;9.458;2022-07-12T14:37:12;29.20;8.80
21676;DHT22;10999;51.332;9.458;2022-07-12T14:39:39;29.30;8.50
21676;DHT22;10999;51.332;9.458;2022-07-12T14:42:06;29.30;8.40
21676;DHT22;10999;51.332;9.458;2022-07-12T14:44:33;29.20;6.80
21676;DHT22;10999;51.332;9.458;2022-07-12T14:47:00;29.20;5.30
21676;DHT22;10999;51.332;9.458;2022-07-12T14:49:27;29.10;6.60
21676;DHT22;10999;51.332;9.458;2022-07-12T14:51:55;29.10;6.70
21676;DHT22;10999;51.332;9.458;2022-07-12T14:54:23;29.10;6.50
21676;DHT22;10999;51.332;9.458;2022-07-12T14:56:49;29.10;7.20
21676;DHT22;10999;51.332;9.458;2022-07-12T14:59:19;29.20;7.70
21676;DHT22;10999;51.332;9.458;2022-07-12T15:01:46;29.20;8.60
21676;DHT22;10999;51.332;9.458;2022-07-12T15:04:13;29.30;8.60
21676;DHT22;10999;51.332;9.458;2022-07-12T15:06:40;29.20;7.30
21676;DHT22;10999;51.332;9.458;2022-07-12T15:09:07;29.20;7.40
21676;DHT22;10999;51.332;9.458;2022-07-12T15:11:34;29.30;6.90
21676;DHT22;10999;51.332;9.458;2022-07-12T15:14:01;29.30;7.00
21676;DHT22;10999;51.332;9.458;2022-07-12T15:16:28;29.40;7.00
21676;DHT22;10999;51.332;9.458;2022-07-12T15:18:55;29.50;6.80
21676;DHT22;10999;51.332;9.458;2022-07-12T15:21:24;29.50;6.80
21676;DHT22;10999;51.332;9.458;2022-07-12T15:23:51;29.50;7.40
21676;DHT22;10999;51.332;9.458;2022-07-12T15:26:18;29.40;5.30
21676;DHT22;10999;51.332;9.458;2022-07-12T15:28:59;29.40;6.30
21676;DHT22;10999;51.332;9.458;2022-07-12T15:31:28;29.40;6.10
21676;DHT22;10999;51.332;9.458;2022-07-12T15:33:55;29.30;6.40
21676;DHT22;10999;51.332;9.458;2022-07-12T15:36:21;29.30;6.20
21676;DHT22;10999;51.332;9.458;2022-07-12T15:38:48;29.50;6.40
21676;DHT22;10999;51.332;9.458;2022-07-12T15:41:14;29.50;6.20
21676;DHT22;10999;51.332;9.458;2022-07-12T15:43:41;29.50;6.30
21676;DHT22;10999;51.332;9.458;2022-07-12T15:46:09;29.50;7.20